createdAt,value
2022-08-09T00:02:26.901Z,98911.31
2022-08-09T00:05:03.466Z,98915.44
2022-08-09T00:07:44.416Z,98915.88
2022-08-09T00:10:21.542Z,98907.03
2022-08-09T00:12:52.330Z,98906.00
2022-08-09T00:15:26.475Z,98903.06
2022-08-09T00:18:10.748Z,98902.69
2022-08-09T00:20:42.503Z,98902.69
2022-08-09T00:23:57.465Z,98901.28
2022-08-09T00:26:05.848Z,98900.88
2022-08-09T00:28:34.698Z,98903.81
2022-08-09T00:31:09.236Z,98897.66
2022-08-09T00:33:51.473Z,98895.31
2022-08-09T00:36:22.545Z,98899.16
2022-08-09T00:38:55.955Z,98898.88
2022-08-09T00:44:16.635Z,98897.66
2022-08-09T00:44:25.030Z,98898.25
2022-08-09T00:46:57.266Z,98901.41
2022-08-09T00:49:32.761Z,98908.13
2022-08-09T00:52:05.214Z,98910.09
2022-08-09T00:54:36.313Z,98911.13
2022-08-09T00:57:08.891Z,98908.56
2022-08-09T00:59:46.276Z,98910.81
2022-08-09T01:02:24.452Z,98912.63
2022-08-09T01:05:13.923Z,98907.97
2022-08-09T01:08:00.447Z,98908.22
2022-08-09T01:11:08.673Z,98907.50
2022-08-09T01:13:59.941Z,98909.31
2022-08-09T01:16:35.157Z,98906.59
2022-08-09T01:19:17.002Z,98906.34
2022-08-09T01:22:17.285Z,98914.53
2022-08-09T01:25:16.177Z,98906.88
2022-08-09T01:27:50.658Z,98914.84
2022-08-09T01:30:33.486Z,98914.56
2022-08-09T01:33:03.339Z,98915.31
2022-08-09T01:35:45.197Z,98919.88
2022-08-09T01:38:18.496Z,98915.59
2022-08-09T01:41:05.088Z,98915.22
2022-08-09T01:43:41.834Z,98912.50
2022-08-09T01:46:24.891Z,98921.19
2022-08-09T01:48:59.839Z,98921.53
2022-08-09T01:51:39.190Z,98912.66
2022-08-09T01:54:10.253Z,98920.53
2022-08-09T01:56:40.664Z,98921.47
2022-08-09T01:59:10.937Z,98923.88
2022-08-09T02:01:59.718Z,98924.97
2022-08-09T02:04:28.494Z,98927.69
2022-08-09T02:07:18.576Z,98927.59
2022-08-09T02:10:07.341Z,98919.72
2022-08-09T02:12:35.432Z,98929.25
2022-08-09T02:15:06.173Z,98932.03
2022-08-09T02:17:59.983Z,98931.75
2022-08-09T02:20:26.760Z,98939.16
2022-08-09T02:23:16.914Z,98946.38
2022-08-09T02:25:49.600Z,98947.72
2022-08-09T02:28:39.113Z,98949.94
2022-08-09T02:31:08.883Z,98953.03
2022-08-09T02:34:06.350Z,98951.41
2022-08-09T02:36:32.571Z,98950.41
2022-08-09T02:39:04.802Z,98953.63
2022-08-09T02:41:50.793Z,98956.44
2022-08-09T02:44:29.164Z,98947.84
2022-08-09T02:46:58.130Z,98942.28
2022-08-09T02:49:27.175Z,98944.63
2022-08-09T02:52:07.853Z,98950.09
2022-08-09T02:54:36.825Z,98950.38
2022-08-09T02:57:23.644Z,98957.50
2022-08-09T03:00:21.624Z,98953.94
2022-08-09T03:02:58.130Z,98956.09
2022-08-09T03:05:26.577Z,98947.06
2022-08-09T03:07:55.210Z,98952.19
2022-08-09T03:10:24.071Z,98951.91
2022-08-09T03:12:52.099Z,98953.19
2022-08-09T03:15:20.801Z,98951.09
2022-08-09T03:17:57.966Z,98953.75
2022-08-09T03:20:29.622Z,98954.22
2022-08-09T03:22:58.425Z,98950.13
2022-08-09T03:25:58.397Z,98959.09
2022-08-09T03:28:30.945Z,98954.78
2022-08-09T03:30:58.850Z,98958.50
2022-08-09T03:33:26.698Z,98961.59
2022-08-09T03:36:16.813Z,98955.09
2022-08-09T03:38:44.654Z,98955.66
2022-08-09T03:41:15.050Z,98961.34
2022-08-09T03:44:04.019Z,98960.22
2022-08-09T03:46:30.357Z,98967.03
2022-08-09T03:48:59.767Z,98962.66
2022-08-09T03:51:43.625Z,98963.38
2022-08-09T03:54:19.387Z,98968.47
2022-08-09T03:56:59.308Z,98968.34
2022-08-09T03:59:27.423Z,98966.78
2022-08-09T04:02:10.340Z,98966.09
2022-08-09T04:04:38.802Z,98969.59
2022-08-09T04:07:05.836Z,98973.22
2022-08-09T04:09:47.693Z,98978.66
2022-08-09T04:12:30.842Z,98976.53
2022-08-09T04:15:02.042Z,98975.69
2022-08-09T04:17:38.242Z,98975.47
2022-08-09T04:20:07.215Z,98971.41
2022-08-09T04:22:34.529Z,98972.28
2022-08-09T04:25:04.670Z,98972.84
2022-08-09T04:27:32.691Z,98979.75
2022-08-09T04:29:59.594Z,98975.00
2022-08-09T04:32:31.586Z,98979.88
2022-08-09T04:35:01.110Z,98971.22
2022-08-09T04:37:45.846Z,98976.72
2022-08-09T04:40:19.283Z,98976.16
2022-08-09T04:42:55.734Z,98984.09
2022-08-09T04:45:23.555Z,98986.25
2022-08-09T04:47:58.767Z,98983.75
2022-08-09T04:50:31.967Z,98985.88
2022-08-09T04:53:02.052Z,98981.25
2022-08-09T04:55:39.054Z,98984.22
2022-08-09T04:58:09.563Z,98985.59
2022-08-09T05:00:37.127Z,98996.81
2022-08-09T05:03:30.141Z,98996.25
2022-08-09T05:06:06.767Z,98997.91
2022-08-09T05:08:34.952Z,98997.91
2022-08-09T05:11:02.345Z,98996.72
2022-08-09T05:13:29.254Z,99002.16
2022-08-09T05:15:59.953Z,98997.25
2022-08-09T05:18:42.926Z,99005.66
2022-08-09T05:21:24.328Z,99011.41
2022-08-09T05:24:00.384Z,99015.31
2022-08-09T05:26:36.020Z,99009.53
2022-08-09T05:29:04.166Z,99009.06
2022-08-09T05:31:44.364Z,99009.59
2022-08-09T05:34:16.646Z,99018.28
2022-08-09T05:36:44.260Z,99015.81
2022-08-09T05:39:28.194Z,99012.22
2022-08-09T05:41:55.952Z,99014.03
2022-08-09T05:44:29.074Z,99016.53
2022-08-09T05:46:59.895Z,99021.53
2022-08-09T05:50:23.872Z,99017.59
2022-08-09T05:52:12.927Z,99012.88
2022-08-09T05:54:39.875Z,99019.47
2022-08-09T05:57:07.704Z,99015.16
2022-08-09T05:59:39.446Z,99018.97
2022-08-09T06:02:09.143Z,99020.66
2022-08-09T06:04:36.717Z,99027.97
2022-08-09T06:07:04.182Z,99037.19
2022-08-09T06:09:54.590Z,99030.78
2022-08-09T06:12:17.200Z,99028.16
2022-08-09T06:14:43.665Z,99034.56
2022-08-09T06:17:10.194Z,99030.88
2022-08-09T06:19:36.929Z,99026.41
2022-08-09T06:22:03.685Z,99031.28
2022-08-09T06:24:30.122Z,99032.91
2022-08-09T06:26:58.086Z,99033.34
2022-08-09T06:29:26.839Z,99030.53
2022-08-09T06:32:08.715Z,99031.91
2022-08-09T06:34:40.443Z,99029.22
2022-08-09T06:37:10.024Z,99023.16
2022-08-09T06:39:48.181Z,99022.03
2022-08-09T06:42:24.929Z,99026.22
2022-08-09T06:44:55.378Z,99024.78
2022-08-09T06:47:24.324Z,99022.97
2022-08-09T06:50:11.455Z,99018.41
2022-08-09T06:52:47.050Z,99024.81
2022-08-09T06:55:17.008Z,99030.75
2022-08-09T06:58:02.755Z,99032.41
2022-08-09T07:00:57.091Z,99040.47
2022-08-09T07:03:16.427Z,99033.25
2022-08-09T07:06:02.350Z,99032.91
2022-08-09T07:08:30.673Z,99030.47
2022-08-09T07:10:57.204Z,99037.56
2022-08-09T07:13:29.558Z,99029.28
2022-08-09T07:16:42.430Z,99030.72
2022-08-09T07:18:44.087Z,99036.31
2022-08-09T07:21:14.220Z,99031.56
2022-08-09T07:23:46.597Z,99033.31
2022-08-09T07:26:23.305Z,99032.13
2022-08-09T07:29:01.371Z,99036.06
2022-08-09T07:31:38.417Z,99027.94
2022-08-09T07:34:19.306Z,99032.81
2022-08-09T07:36:47.816Z,99031.22
2022-08-09T07:39:20.101Z,99038.44
2022-08-09T07:42:00.802Z,99032.88
2022-08-09T07:44:50.831Z,99034.34
2022-08-09T07:47:17.857Z,99038.25
2022-08-09T07:50:04.485Z,99032.19
2022-08-09T07:52:31.227Z,99035.56
2022-08-09T07:54:57.896Z,99038.84
2022-08-09T07:57:35.674Z,99033.00
2022-08-09T08:00:04.543Z,99034.69
2022-08-09T08:02:36.039Z,99042.22
2022-08-09T08:05:17.908Z,99041.66
2022-08-09T08:08:43.864Z,99024.91
2022-08-09T08:10:34.467Z,99036.25
2022-08-09T08:13:01.567Z,99031.75
2022-08-09T08:15:37.699Z,99032.81
2022-08-09T08:18:05.821Z,99025.28
2022-08-09T08:20:33.497Z,99025.19
2022-08-09T08:23:16.128Z,99026.13
2022-08-09T08:25:46.429Z,99030.69
2022-08-09T08:28:18.268Z,99027.69
2022-08-09T08:30:59.077Z,99018.06
2022-08-09T08:33:25.596Z,99022.03
2022-08-09T08:36:07.641Z,99019.06
2022-08-09T08:38:35.013Z,99017.75
2022-08-09T08:41:06.203Z,99017.09
2022-08-09T08:43:34.916Z,99014.81
2022-08-09T08:46:32.642Z,99012.47
2022-08-09T08:48:53.973Z,99014.03
2022-08-09T08:51:22.965Z,99019.03
2022-08-09T08:54:02.964Z,99024.25
2022-08-09T08:56:37.641Z,99019.41
2022-08-09T08:59:20.172Z,99016.06
2022-08-09T09:01:53.455Z,99011.75
2022-08-09T09:04:29.783Z,99010.38
2022-08-09T09:07:02.755Z,99012.31
2022-08-09T09:09:57.792Z,99006.16
2022-08-09T09:12:22.731Z,99010.97
2022-08-09T09:14:50.154Z,99016.28
2022-08-09T09:17:18.701Z,99006.00
2022-08-09T09:19:47.589Z,99014.31
2022-08-09T09:22:17.560Z,99001.94
2022-08-09T09:26:02.450Z,99009.19
2022-08-09T09:28:03.542Z,98999.91
2022-08-09T09:30:47.433Z,99006.94
2022-08-09T09:33:16.379Z,99005.28
2022-08-09T09:36:01.744Z,99001.34
2022-08-09T09:38:44.628Z,98992.56
2022-08-09T09:41:23.379Z,98998.97
2022-08-09T09:44:12.055Z,99002.56
2022-08-09T09:46:42.864Z,98985.00
2022-08-09T09:49:18.549Z,98993.94
2022-08-09T09:52:06.817Z,98995.03
2022-08-09T09:55:01.006Z,98997.97
2022-08-09T09:58:03.080Z,98988.41
2022-08-09T10:00:26.440Z,98991.59
2022-08-09T10:02:53.509Z,98969.78
2022-08-09T10:05:27.070Z,98971.28
2022-08-09T10:08:26.012Z,98994.53
2022-08-09T10:10:54.063Z,98987.28
2022-08-09T10:13:24.738Z,98997.22
2022-08-09T10:16:58.313Z,98981.34
2022-08-09T10:18:56.818Z,98986.91
2022-08-09T10:21:27.628Z,98984.66
2022-08-09T10:23:56.996Z,98987.81
2022-08-09T10:26:26.798Z,98980.34
2022-08-09T10:29:22.647Z,98973.84
2022-08-09T10:32:27.909Z,98976.97
2022-08-09T10:34:33.925Z,98973.91
2022-08-09T10:37:02.444Z,98975.13
2022-08-09T10:39:29.945Z,98971.69
2022-08-09T10:42:08.480Z,98962.63
2022-08-09T10:44:39.826Z,98961.00
2022-08-09T10:48:17.211Z,98960.53
2022-08-09T10:50:31.109Z,98955.88
2022-08-09T10:53:19.164Z,98961.41
2022-08-09T10:55:58.235Z,98962.72
2022-08-09T10:58:35.035Z,98952.19
2022-08-09T11:03:02.816Z,98958.69
2022-08-09T11:04:27.755Z,98958.41
2022-08-09T11:07:00.319Z,98951.72
2022-08-09T11:09:41.372Z,98945.03
2022-08-09T11:12:17.486Z,98949.41
2022-08-09T11:14:47.270Z,98946.13
2022-08-09T11:17:13.844Z,98949.84
2022-08-09T11:20:22.092Z,98944.03
2022-08-09T11:22:55.365Z,98956.53
2022-08-09T11:25:45.177Z,98948.53
2022-08-09T11:28:38.917Z,98940.75
2022-08-09T11:31:49.830Z,98944.44
2022-08-09T11:34:34.927Z,98946.13
2022-08-09T11:37:03.685Z,98936.50
2022-08-09T11:40:01.051Z,98944.50
2022-08-09T11:42:51.496Z,98933.34
2022-08-09T11:45:26.356Z,98931.06
2022-08-09T11:48:19.301Z,98943.28
2022-08-09T11:52:49.501Z,98930.16
2022-08-09T11:53:59.727Z,98941.44
2022-08-09T11:56:34.316Z,98946.47
2022-08-09T11:59:11.937Z,98936.34
2022-08-09T12:02:17.103Z,98921.22
2022-08-09T12:04:37.546Z,98912.13
2022-08-09T12:07:07.756Z,98913.47
2022-08-09T12:09:36.041Z,98919.50
2022-08-09T12:12:13.136Z,98914.22
2022-08-09T12:15:08.356Z,98909.06
2022-08-09T12:17:34.627Z,98918.28
2022-08-09T12:20:22.149Z,98905.13
2022-08-09T12:23:03.215Z,98910.88
2022-08-09T12:25:37.363Z,98912.69
2022-08-09T12:29:15.304Z,98909.78
2022-08-09T12:31:58.143Z,98907.06
2022-08-09T12:34:15.697Z,98903.03
2022-08-09T12:36:52.793Z,98899.91
2022-08-09T12:39:27.055Z,98890.06
2022-08-09T12:41:54.638Z,98891.69
2022-08-09T12:44:24.555Z,98895.06
2022-08-09T12:46:51.454Z,98906.66
2022-08-09T12:49:19.010Z,98895.50
2022-08-09T12:52:01.084Z,98886.81
2022-08-09T12:56:11.061Z,98887.44
2022-08-09T12:57:46.455Z,98885.16
2022-08-09T13:00:23.442Z,98895.66
2022-08-09T13:02:56.070Z,98888.00
2022-08-09T13:05:25.276Z,98885.22
2022-08-09T13:08:21.311Z,98881.53
2022-08-09T13:11:22.699Z,98877.63
2022-08-09T13:14:42.653Z,98893.38
2022-08-09T13:16:49.479Z,98887.91
2022-08-09T13:20:09.378Z,98875.31
2022-08-09T13:22:35.666Z,98889.16
2022-08-09T13:25:05.151Z,98881.13
2022-08-09T13:27:40.063Z,98878.31
2022-08-09T13:30:50.372Z,98871.72
2022-08-09T13:33:07.010Z,98874.16
2022-08-09T13:36:24.640Z,98871.16
2022-08-09T13:38:55.805Z,98869.16
2022-08-09T13:41:45.905Z,98862.47
2022-08-09T13:43:58.186Z,98855.41
2022-08-09T13:47:17.987Z,98848.81
2022-08-09T13:49:18.359Z,98850.38
2022-08-09T13:52:00.562Z,98863.88
2022-08-09T13:54:30.376Z,98861.56
2022-08-09T13:56:56.916Z,98856.63
2022-08-09T13:59:25.420Z,98857.56
2022-08-09T14:02:01.672Z,98859.63
2022-08-09T14:04:29.391Z,98853.25
2022-08-09T14:07:03.513Z,98838.69
2022-08-09T14:09:30.585Z,98853.22
2022-08-09T14:12:06.193Z,98841.81
2022-08-09T14:14:41.894Z,98839.56
2022-08-09T14:17:12.571Z,98844.50
2022-08-09T14:19:39.184Z,98834.94
2022-08-09T14:22:07.276Z,98841.25
2022-08-09T14:24:35.697Z,98840.13
2022-08-09T14:27:02.389Z,98835.53
2022-08-09T14:30:35.287Z,98834.97
2022-08-09T14:32:19.705Z,98828.44
2022-08-09T14:34:55.925Z,98831.47
2022-08-09T14:37:28.556Z,98848.66
2022-08-09T14:39:55.341Z,98821.63
2022-08-09T14:42:31.781Z,98839.97
2022-08-09T14:46:53.993Z,98831.59
2022-08-09T14:47:57.937Z,98842.06
2022-08-09T14:50:27.937Z,98836.06
2022-08-09T14:52:54.579Z,98833.25
2022-08-09T14:55:21.441Z,98833.63
2022-08-09T14:57:49.354Z,98832.72
2022-08-09T15:00:17.061Z,98836.25
2022-08-09T15:02:47.573Z,98839.06
2022-08-09T15:05:19.597Z,98837.09
2022-08-09T15:07:56.345Z,98847.03
2022-08-09T15:10:24.757Z,98837.28
2022-08-09T15:12:55.755Z,98834.72
2022-08-09T15:15:23.554Z,98829.13
2022-08-09T15:17:52.887Z,98835.78
2022-08-09T15:21:58.255Z,98831.16
2022-08-09T15:24:01.275Z,98837.50
2022-08-09T15:25:55.629Z,98835.50
2022-08-09T15:28:27.306Z,98834.25
2022-08-09T15:31:01.839Z,98837.53
2022-08-09T15:34:15.436Z,98833.66
2022-08-09T15:36:16.633Z,98838.91
2022-08-09T15:38:43.079Z,98835.91
2022-08-09T15:41:10.273Z,98826.81
2022-08-09T15:43:38.972Z,98829.72
2022-08-09T15:46:28.256Z,98827.50
2022-08-09T15:49:20.431Z,98839.63
2022-08-09T15:52:02.164Z,98825.94
2022-08-09T15:54:33.438Z,98814.00
2022-08-09T15:57:09.398Z,98819.56
2022-08-09T15:59:37.113Z,98800.47
2022-08-09T16:02:04.073Z,98817.84
2022-08-09T16:04:32.104Z,98809.75
2022-08-09T16:07:01.700Z,98809.44
2022-08-09T16:09:32.499Z,98808.06
2022-08-09T16:12:15.726Z,98798.56
2022-08-09T16:14:42.721Z,98808.31
2022-08-09T16:17:09.432Z,98796.47
2022-08-09T16:19:36.880Z,98802.56
2022-08-09T16:22:15.727Z,98802.59
2022-08-09T16:24:42.480Z,98799.84
2022-08-09T16:27:08.910Z,98806.94
2022-08-09T16:29:50.707Z,98800.91
2022-08-09T16:32:43.296Z,98802.44
2022-08-09T16:35:07.275Z,98802.09
2022-08-09T16:37:55.765Z,98803.03
2022-08-09T16:40:39.931Z,98801.44
2022-08-09T16:43:07.355Z,98797.94
2022-08-09T16:45:33.816Z,98789.38
2022-08-09T16:48:41.798Z,98788.16
2022-08-09T16:50:49.923Z,98791.38
2022-08-09T16:53:32.177Z,98793.78
2022-08-09T16:56:03.647Z,98789.84
2022-08-09T16:58:36.109Z,98787.16
2022-08-09T17:01:04.593Z,98796.03
2022-08-09T17:03:31.383Z,98802.75
2022-08-09T17:06:06.911Z,98790.34
2022-08-09T17:09:02.932Z,98798.94
2022-08-09T17:11:39.946Z,98796.63
2022-08-09T17:14:26.165Z,98792.03
2022-08-09T17:16:59.454Z,98795.88
2022-08-09T17:19:27.044Z,98798.19
2022-08-09T17:22:13.373Z,98806.09
2022-08-09T17:24:47.517Z,98803.72
2022-08-09T17:27:21.249Z,98802.06
2022-08-09T17:29:47.695Z,98805.25
2022-08-09T17:32:16.430Z,98811.38
2022-08-09T17:35:07.639Z,98810.13
2022-08-09T17:38:11.896Z,98813.06
2022-08-09T17:40:21.627Z,98811.75
2022-08-09T17:42:59.316Z,98825.06
2022-08-09T17:46:01.774Z,98813.25
2022-08-09T17:48:16.933Z,98823.19
2022-08-09T17:50:48.748Z,98823.91
2022-08-09T17:53:23.312Z,98819.44
2022-08-09T17:55:54.102Z,98819.19
2022-08-09T17:58:24.272Z,98828.72
2022-08-09T18:00:56.264Z,98820.69
2022-08-09T18:03:24.417Z,98823.91
2022-08-09T18:05:53.060Z,98819.63
2022-08-09T18:08:21.796Z,98827.66
2022-08-09T18:11:00.912Z,98835.16
2022-08-09T18:13:38.791Z,98831.97
2022-08-09T18:16:16.973Z,98827.16
2022-08-09T18:18:56.768Z,98834.03
2022-08-09T18:21:24.413Z,98831.28
2022-08-09T18:24:12.681Z,98838.94
2022-08-09T18:26:46.649Z,98839.66
2022-08-09T18:30:42.269Z,98841.69
2022-08-09T18:32:03.633Z,98841.06
2022-08-09T18:34:34.864Z,98843.66
2022-08-09T18:37:02.970Z,98847.94
2022-08-09T18:39:32.088Z,98857.47
2022-08-09T18:42:01.115Z,98849.41
2022-08-09T18:44:27.791Z,98858.75
2022-08-09T18:47:08.048Z,98853.72
2022-08-09T18:49:41.479Z,98858.22
2022-08-09T18:52:11.687Z,98857.13
2022-08-09T18:54:38.964Z,98860.59
2022-08-09T18:57:08.772Z,98866.34
2022-08-09T18:59:48.463Z,98874.75
2022-08-09T19:02:16.992Z,98876.94
2022-08-09T19:04:47.913Z,98880.19
2022-08-09T19:07:31.567Z,98879.50
2022-08-09T19:10:16.920Z,98878.94
2022-08-09T19:12:45.655Z,98888.22
2022-08-09T19:15:19.839Z,98891.44
2022-08-09T19:17:54.833Z,98883.97
2022-08-09T19:20:23.286Z,98879.50
2022-08-09T19:22:54.275Z,98879.03
2022-08-09T19:25:42.425Z,98885.47
2022-08-09T19:28:08.874Z,98887.19
2022-08-09T19:30:44.594Z,98893.94
2022-08-09T19:33:19.060Z,98901.09
2022-08-09T19:35:57.138Z,98903.59
2022-08-09T19:38:27.152Z,98899.81
2022-08-09T19:40:54.179Z,98907.72
2022-08-09T19:43:57.903Z,98901.97
2022-08-09T19:46:08.625Z,98914.81
2022-08-09T19:49:00.443Z,98903.06
2022-08-09T19:51:30.641Z,98912.69
2022-08-09T19:54:01.225Z,98917.13
2022-08-09T19:56:29.427Z,98909.63
2022-08-09T19:59:39.548Z,98908.94
2022-08-09T20:01:53.079Z,98912.78
2022-08-09T20:04:37.331Z,98916.69
2022-08-09T20:07:12.400Z,98919.59
2022-08-09T20:09:48.862Z,98920.75
2022-08-09T20:12:30.186Z,98922.59
2022-08-09T20:15:10.318Z,98926.47
2022-08-09T20:17:54.604Z,98926.88
2022-08-09T20:20:21.502Z,98925.25
2022-08-09T20:22:48.665Z,98931.63
2022-08-09T20:25:22.551Z,98943.84
2022-08-09T20:27:49.436Z,98942.94
2022-08-09T20:30:18.081Z,98943.69
2022-08-09T20:32:52.262Z,98943.28
2022-08-09T20:35:19.742Z,98943.22
2022-08-09T20:38:23.902Z,98946.22
2022-08-09T20:40:32.793Z,98947.69
2022-08-09T20:43:19.012Z,98950.94
2022-08-09T20:45:59.383Z,98946.63
2022-08-09T20:48:32.764Z,98943.53
2022-08-09T20:51:00.974Z,98948.06
2022-08-09T20:53:36.480Z,98943.88
2022-08-09T20:56:06.445Z,98943.66
2022-08-09T20:58:35.706Z,98952.28
2022-08-09T21:01:32.521Z,98945.47
2022-08-09T21:05:48.407Z,98941.59
2022-08-09T21:06:42.591Z,98947.69
2022-08-09T21:09:11.621Z,98948.13
2022-08-09T21:14:26.832Z,98944.63
2022-08-09T21:16:57.748Z,98935.31
2022-08-09T21:20:19.264Z,98932.72
2022-08-09T21:22:35.970Z,98940.50
2022-08-09T21:25:17.712Z,98934.72
2022-08-09T21:27:51.043Z,98935.19
2022-08-09T21:30:19.274Z,98941.97
2022-08-09T21:32:49.347Z,98939.56
2022-08-09T21:35:16.551Z,98939.88
2022-08-09T21:37:56.936Z,98934.84
2022-08-09T21:40:30.577Z,98931.97
2022-08-09T21:42:58.752Z,98930.16
2022-08-09T21:45:25.774Z,98925.03
2022-08-09T21:47:52.805Z,98928.22
2022-08-09T21:50:33.881Z,98927.00
2022-08-09T21:53:03.945Z,98933.25
2022-08-09T21:55:30.882Z,98936.34
2022-08-09T21:58:01.938Z,98929.25
2022-08-09T22:00:33.574Z,98930.03
2022-08-09T22:03:19.173Z,98929.41
2022-08-09T22:05:51.800Z,98932.50
2022-08-09T22:08:18.746Z,98926.66
2022-08-09T22:11:00.539Z,98932.16
2022-08-09T22:13:35.991Z,98928.75
2022-08-09T22:16:07.571Z,98927.81
2022-08-09T22:18:35.946Z,98926.50
2022-08-09T22:21:10.001Z,98925.22
2022-08-09T22:24:01.309Z,98917.63
2022-08-09T22:26:35.341Z,98918.72
2022-08-09T22:29:08.859Z,98917.63
2022-08-09T22:31:37.371Z,98913.88
2022-08-09T22:34:14.566Z,98922.28
2022-08-09T22:36:46.254Z,98923.22
2022-08-09T22:39:46.814Z,98925.97
2022-08-09T22:42:00.726Z,98935.59
2022-08-09T22:44:29.963Z,98929.00
2022-08-09T22:48:14.554Z,98925.25
2022-08-09T22:49:45.997Z,98932.88
2022-08-09T22:52:12.501Z,98937.09
2022-08-09T22:54:42.181Z,98929.81
2022-08-09T22:57:11.920Z,98923.25
2022-08-09T22:59:56.251Z,98925.59
2022-08-09T23:02:25.102Z,98916.38
2022-08-09T23:04:53.701Z,98923.56
2022-08-09T23:08:29.308Z,98922.00
2022-08-09T23:10:27.014Z,98923.25
2022-08-09T23:12:53.502Z,98919.06
2022-08-09T23:15:20.107Z,98917.09
2022-08-09T23:17:46.553Z,98922.56
2022-08-09T23:20:13.220Z,98922.78
2022-08-09T23:22:39.898Z,98923.47
2022-08-09T23:25:07.069Z,98917.88
2022-08-09T23:27:33.743Z,98913.50
2022-08-09T23:30:00.392Z,98919.66
2022-08-09T23:32:26.844Z,98922.09
2022-08-09T23:34:53.356Z,98926.38
2022-08-09T23:37:22.704Z,98916.69
2022-08-09T23:39:51.920Z,98919.50
2022-08-09T23:42:18.419Z,98921.50
2022-08-09T23:44:44.978Z,98914.31
2022-08-09T23:47:11.471Z,98915.91
2022-08-09T23:49:37.904Z,98916.25
2022-08-09T23:52:04.862Z,98919.41
2022-08-09T23:54:31.336Z,98914.34
2022-08-09T23:56:58.604Z,98913.03
2022-08-09T23:59:25.594Z,98911.81
